Time;durP1;ratioP1;P1;durP2;ratioP2;P2;SDS_P1;SDS_P2;PMS_P1;PMS_P2;Temp;Humidity;BMP_temperature;BMP_pressure;BME280_temperature;BME280_humidity;BME280_pressure;Samples;Min_cycle;Max_cycle;Signal;HPM_P1;HPM_P2
2022/11/28 00:01:58;;;;;;;5.00;2.63;;;;;;;19.23;44.25;100877.06;4962187;28;20039;-69
2022/11/28 00:04:23;;;;;;;5.57;2.60;;;;;;;19.24;44.02;100878.75;4977312;28;20049;-68
2022/11/28 00:06:49;;;;;;;3.78;2.35;;;;;;;19.21;44.22;100882.50;4961880;28;20306;-70
2022/11/28 00:09:16;;;;;;;4.95;2.42;;;;;;;19.19;44.27;100876.50;4963433;28;20132;-71
2022/11/28 00:11:43;;;;;;;4.30;2.40;;;;;;;19.17;44.28;100872.34;4965965;28;20066;-71
2022/11/28 00:14:09;;;;;;;4.60;2.45;;;;;;;19.18;44.08;100877.50;4965533;28;20031;-70
2022/11/28 00:16:35;;;;;;;5.13;2.60;;;;;;;19.15;44.26;100875.13;4965942;28;20490;-69
2022/11/28 00:19:01;;;;;;;6.32;2.60;;;;;;;19.17;44.00;100873.19;4965816;28;20537;-68
2022/11/28 00:21:27;;;;;;;4.53;2.60;;;;;;;19.15;44.03;100866.34;4966023;28;20045;-70
2022/11/28 00:23:52;;;;;;;4.13;2.00;;;;;;;19.14;43.87;100865.50;4965911;28;20848;-70
2022/11/28 00:26:26;;;;;;;4.20;2.28;;;;;;;19.09;44.05;100859.78;4965454;28;20045;-69
2022/11/28 00:28:52;;;;;;;5.05;2.38;;;;;;;19.13;44.15;100869.09;4965493;28;20043;-68
2022/11/28 00:31:20;;;;;;;5.72;2.80;;;;;;;19.12;44.09;100862.16;4965713;28;20115;-69
2022/11/28 00:33:45;;;;;;;4.28;2.30;;;;;;;19.10;44.08;100855.34;4965725;28;20038;-70
2022/11/28 00:36:11;;;;;;;4.63;2.83;;;;;;;19.09;44.06;100851.00;4965152;28;20045;-70
2022/11/28 00:38:37;;;;;;;5.13;2.20;;;;;;;19.08;43.93;100850.19;4965598;28;20045;-70
2022/11/28 00:41:04;;;;;;;3.83;2.17;;;;;;;19.05;44.11;100853.06;4965402;28;20034;-70
2022/11/28 00:43:29;;;;;;;4.72;2.65;;;;;;;19.04;44.07;100848.75;4965331;28;20031;-69
2022/11/28 00:45:55;;;;;;;4.50;2.30;;;;;;;19.05;44.03;100857.53;4965708;28;20041;-72
2022/11/28 00:48:23;;;;;;;4.07;2.33;;;;;;;19.05;44.04;100852.25;4965109;28;20073;-70
2022/11/28 00:50:49;;;;;;;4.88;3.05;;;;;;;19.03;44.15;100849.75;4965114;28;20042;-70
2022/11/28 00:53:14;;;;;;;3.97;2.10;;;;;;;19.06;44.07;100851.25;4965097;28;20046;-70
2022/11/28 00:55:40;;;;;;;4.78;2.20;;;;;;;19.03;44.07;100844.47;4965212;28;20155;-71
2022/11/28 00:58:06;;;;;;;4.43;2.33;;;;;;;19.00;43.98;100842.06;4964727;28;20034;-68
2022/11/28 01:00:33;;;;;;;5.57;2.30;;;;;;;19.01;44.11;100847.22;4979759;28;20098;-70
2022/11/28 01:02:59;;;;;;;4.85;2.00;;;;;;;19.02;43.92;100848.06;4965239;28;20086;-69
2022/11/28 01:05:25;;;;;;;4.43;2.53;;;;;;;18.98;43.89;100852.75;4965087;28;20035;-70
2022/11/28 01:07:50;;;;;;;4.03;2.25;;;;;;;18.98;44.00;100850.13;4964559;28;20050;-70
2022/11/28 01:10:16;;;;;;;4.82;2.20;;;;;;;18.96;44.00;100846.78;4965066;28;20038;-69
2022/11/28 01:12:41;;;;;;;3.92;2.28;;;;;;;18.97;43.78;100847.63;4964571;28;20398;-70
2022/11/28 01:15:09;;;;;;;4.05;2.33;;;;;;;18.87;43.92;100836.13;4965138;28;20538;-69
2022/11/28 01:17:35;;;;;;;3.58;2.13;;;;;;;18.96;44.04;100853.84;4965117;28;20033;-70
2022/11/28 01:20:03;;;;;;;4.38;2.30;;;;;;;18.94;43.99;100839.94;4964618;28;20039;-69
2022/11/28 01:22:28;;;;;;;4.53;2.10;;;;;;;18.93;44.03;100841.75;4964601;28;20066;-71
2022/11/28 01:24:54;;;;;;;4.03;2.38;;;;;;;18.95;43.79;100852.19;4964573;28;20059;-70
2022/11/28 01:27:19;;;;;;;3.70;2.30;;;;;;;18.92;43.84;100844.53;4964437;28;20042;-69
2022/11/28 01:29:44;;;;;;;4.35;2.05;;;;;;;18.92;44.16;100847.19;4964732;28;20085;-69
2022/11/28 01:32:09;;;;;;;4.30;2.40;;;;;;;18.91;43.71;100846.31;4964560;28;20058;-71
2022/11/28 01:34:35;;;;;;;4.65;2.20;;;;;;;18.90;43.68;100841.16;4964523;28;20031;-70
2022/11/28 01:37:00;;;;;;;4.28;2.15;;;;;;;18.91;43.95;100843.69;4964626;28;20133;-70
2022/11/28 01:39:25;;;;;;;4.55;2.35;;;;;;;18.90;43.92;100852.59;4964362;28;20085;-70
2022/11/28 01:41:51;;;;;;;5.10;2.42;;;;;;;18.90;44.00;100857.00;4964162;28;20046;-69
2022/11/28 01:44:16;;;;;;;4.30;1.98;;;;;;;18.90;43.80;100860.50;4963994;28;20121;-71
2022/11/28 01:46:42;;;;;;;3.93;2.00;;;;;;;18.88;43.85;100857.13;4964655;28;20118;-70
2022/11/28 01:49:13;;;;;;;4.80;2.00;;;;;;;18.88;44.10;100845.75;4964096;28;20542;-69
2022/11/28 01:51:41;;;;;;;3.88;1.80;;;;;;;18.86;44.05;100851.16;4979114;28;20039;-69
2022/11/28 01:54:07;;;;;;;4.30;2.00;;;;;;;18.87;43.92;100852.84;4978680;28;20137;-69
2022/11/28 01:56:43;;;;;;;3.53;2.13;;;;;;;18.85;44.11;100836.28;4963678;28;20121;-69
2022/11/28 01:59:10;;;;;;;3.53;1.80;;;;;;;18.84;43.94;100839.91;4978460;28;20461;-70
2022/11/28 02:01:37;;;;;;;3.83;2.08;;;;;;;18.82;43.89;100847.91;4964216;28;20133;-70
2022/11/28 02:04:03;;;;;;;3.58;2.10;;;;;;;18.83;43.83;100831.13;4964117;28;20101;-68
2022/11/28 02:06:30;;;;;;;4.05;1.95;;;;;;;18.80;44.53;100833.16;4963759;28;20046;-69
2022/11/28 02:08:56;;;;;;;3.65;1.92;;;;;;;18.80;44.08;100830.50;4963821;28;20463;-69
2022/11/28 02:11:43;;;;;;;3.90;2.05;;;;;;;18.83;43.87;100830.25;4963857;28;20030;-69
2022/11/28 02:14:14;;;;;;;4.20;1.90;;;;;;;18.79;44.23;100823.56;4963942;28;20031;-70
2022/11/28 02:17:14;;;;;;;4.47;2.20;;;;;;;18.81;43.95;100834.84;4963623;28;20113;-70
2022/11/28 02:20:00;;;;;;;4.70;2.08;;;;;;;18.80;44.00;100819.94;4964238;28;20062;-69
2022/11/28 02:22:45;;;;;;;3.90;2.00;;;;;;;18.79;44.35;100815.66;4963761;28;20035;-69
2022/11/28 02:25:34;;;;;;;4.28;1.98;;;;;;;18.75;44.08;100814.22;4963284;28;20548;-71
2022/11/28 02:28:24;;;;;;;3.60;1.75;;;;;;;18.79;44.39;100818.31;4963080;28;20062;-69
2022/11/28 02:31:27;;;;;;;3.22;1.80;;;;;;;18.79;44.18;100820.94;4963767;28;20549;-70
2022/11/28 02:33:55;;;;;;;3.70;1.88;;;;;;;18.77;44.40;100822.84;4963639;28;20134;-72
2022/11/28 02:36:33;;;;;;;4.40;2.20;;;;;;;18.75;44.48;100820.34;4963478;28;20039;-71
2022/11/28 02:39:17;;;;;;;3.53;1.70;;;;;;;18.75;44.24;100819.50;4963338;28;20396;-69
2022/11/28 02:41:49;;;;;;;3.97;1.75;;;;;;;18.75;44.19;100822.97;4963522;28;20122;-70
2022/11/28 02:44:27;;;;;;;3.28;1.70;;;;;;;18.76;44.05;100826.47;4963111;28;20399;-69
2022/11/28 02:47:01;;;;;;;3.45;1.88;;;;;;;18.72;44.05;100815.31;4962902;28;20125;-68
2022/11/28 02:49:41;;;;;;;3.70;1.83;;;;;;;18.74;44.07;100820.47;4963536;28;20508;-70
2022/11/28 02:52:50;;;;;;;4.50;1.88;;;;;;;18.75;44.05;100817.69;4963334;28;20034;-68
2022/11/28 02:55:16;;;;;;;3.63;1.85;;;;;;;18.74;43.97;100818.69;4971023;28;20057;-69
2022/11/28 02:57:47;;;;;;;3.20;1.48;;;;;;;18.72;44.01;100815.31;4962618;28;20038;-68
2022/11/28 03:00:30;;;;;;;3.45;1.70;;;;;;;18.73;44.26;100817.00;4963112;28;20045;-70
2022/11/28 03:03:18;;;;;;;3.15;1.80;;;;;;;18.73;44.27;100814.34;4963145;28;20035;-69
2022/11/28 03:06:04;;;;;;;2.85;1.30;;;;;;;18.71;44.27;100808.38;4977562;28;20395;-70
2022/11/28 03:09:04;;;;;;;3.72;1.85;;;;;;;18.71;44.08;100808.38;4963073;28;20104;-69
2022/11/28 03:11:53;;;;;;;2.83;1.55;;;;;;;18.68;44.26;100798.91;4962754;28;20041;-69
2022/11/28 03:14:40;;;;;;;3.20;1.60;;;;;;;18.71;44.06;100805.75;4963383;28;20093;-70
2022/11/28 03:17:14;;;;;;;3.42;1.80;;;;;;;18.69;44.31;100797.09;4962862;28;20573;-68
2022/11/28 03:20:07;;;;;;;3.38;1.60;;;;;;;18.64;44.29;100794.88;4962859;28;20144;-68
2022/11/28 03:22:47;;;;;;;4.00;2.03;;;;;;;18.66;44.23;100795.56;4961732;28;20078;-69
2022/11/28 03:25:54;;;;;;;3.53;1.60;;;;;;;18.68;43.94;100801.53;4963082;28;20066;-69
2022/11/28 03:28:37;;;;;;;3.88;1.88;;;;;;;18.67;43.81;100805.16;4964093;28;20089;-68
2022/11/28 03:31:19;;;;;;;3.63;1.50;;;;;;;18.64;43.96;100794.00;4962807;28;20133;-67
2022/11/28 03:33:50;;;;;;;3.67;1.92;;;;;;;18.62;44.11;100795.94;4977200;28;20050;-70
2022/11/28 03:36:22;;;;;;;3.55;1.65;;;;;;;18.62;44.11;100791.50;4962264;28;20507;-71
2022/11/28 03:38:53;;;;;;;3.60;1.70;;;;;;;18.63;43.94;100795.00;4962598;28;20118;-70
2022/11/28 03:41:31;;;;;;;2.95;1.60;;;;;;;18.57;44.03;100788.41;4962797;28;20038;-69
2022/11/28 03:43:58;;;;;;;4.10;1.60;;;;;;;18.62;44.06;100796.78;4978024;28;20042;-70
2022/11/28 03:46:29;;;;;;;3.78;1.75;;;;;;;18.60;44.29;100789.97;4966319;28;20026;-69
2022/11/28 03:48:58;;;;;;;3.10;1.40;;;;;;;18.60;44.07;100796.06;4966356;28;20031;-67
2022/11/28 03:51:30;;;;;;;3.63;1.50;;;;;;;18.55;43.91;100790.34;4966121;28;20031;-71
2022/11/28 03:54:03;;;;;;;2.95;1.50;;;;;;;18.57;44.14;100782.31;4966814;28;20035;-69
2022/11/28 03:56:52;;;;;;;3.05;1.50;;;;;;;18.60;44.23;100789.97;4966137;28;20023;-69
2022/11/28 03:59:26;;;;;;;3.40;1.73;;;;;;;18.61;44.07;100796.91;4966349;28;20038;-70
2022/11/28 04:02:03;;;;;;;3.08;1.60;;;;;;;18.60;44.15;100792.63;4966154;28;20039;-68
2022/11/28 04:04:38;;;;;;;2.85;1.63;;;;;;;18.57;44.00;100796.34;4966363;28;20051;-69
2022/11/28 04:07:41;;;;;;;3.03;1.60;;;;;;;18.61;44.13;100794.25;4966245;28;20531;-69
2022/11/28 04:10:21;;;;;;;3.38;1.52;;;;;;;18.58;44.04;100798.03;4966019;28;20403;-70
2022/11/28 04:12:55;;;;;;;3.63;1.92;;;;;;;18.55;44.17;100792.13;4966145;28;20041;-70
2022/11/28 04:15:39;;;;;;;2.53;1.50;;;;;;;18.59;44.00;100790.94;4966192;28;20035;-69
2022/11/28 04:18:28;;;;;;;3.60;1.52;;;;;;;18.58;43.97;100810.34;4965724;28;20034;-68
2022/11/28 04:21:07;;;;;;;2.92;1.50;;;;;;;18.58;44.04;100790.09;4965570;28;20039;-70
2022/11/28 04:23:36;;;;;;;2.95;1.63;;;;;;;18.57;44.21;100792.88;4966000;28;20043;-68
2022/11/28 04:26:10;;;;;;;3.75;1.80;;;;;;;18.55;44.26;100810.63;4965759;28;20045;-70
2022/11/28 04:28:38;;;;;;;3.08;1.42;;;;;;;18.56;44.10;100802.56;4965811;28;20043;-69
2022/11/28 04:31:05;;;;;;;2.60;1.45;;;;;;;18.55;44.09;100797.41;4965630;28;20031;-69
2022/11/28 04:33:34;;;;;;;2.38;1.38;;;;;;;18.51;44.06;100802.13;4965598;28;20065;-70
2022/11/28 04:36:01;;;;;;;2.92;1.40;;;;;;;18.53;43.88;100802.00;4965647;28;20106;-69
2022/11/28 04:38:28;;;;;;;3.60;1.55;;;;;;;18.52;44.17;100800.31;4965661;28;20158;-69
2022/11/28 04:41:27;;;;;;;3.08;1.40;;;;;;;18.55;44.16;100800.91;4965467;28;20113;-70
2022/11/28 04:44:02;;;;;;;4.28;1.60;;;;;;;18.53;44.04;100804.63;4965223;28;20154;-68
2022/11/28 04:46:38;;;;;;;3.65;1.60;;;;;;;18.53;44.17;100808.09;4966135;28;20160;-68
2022/11/28 04:49:03;;;;;;;3.15;1.50;;;;;;;18.53;44.23;100805.47;4965450;28;20030;-71
2022/11/28 04:51:41;;;;;;;3.15;1.40;;;;;;;18.51;44.18;100801.28;4980377;28;20510;-70
2022/11/28 04:54:18;;;;;;;2.45;1.30;;;;;;;18.48;44.20;100795.31;4980634;28;20471;-70
2022/11/28 04:56:51;;;;;;;2.60;1.30;;;;;;;18.48;44.43;100797.97;4965317;28;20085;-69
2022/11/28 04:59:20;;;;;;;3.58;1.63;;;;;;;18.41;44.07;100775.66;4965574;28;20034;-71
2022/11/28 05:01:47;;;;;;;3.45;1.60;;;;;;;18.49;44.15;100798.78;4965084;28;20434;-69
2022/11/28 05:04:13;;;;;;;3.10;1.52;;;;;;;18.52;44.06;100806.44;4965179;28;20030;-69
2022/11/28 05:06:38;;;;;;;2.80;1.42;;;;;;;18.49;44.16;100801.41;4965024;28;20039;-71
2022/11/28 05:09:03;;;;;;;3.08;1.45;;;;;;;18.52;44.21;100806.44;4965059;28;20129;-69
2022/11/28 05:11:29;;;;;;;2.55;1.30;;;;;;;18.48;43.86;100805.88;4964812;28;20398;-69
2022/11/28 05:13:55;;;;;;;4.15;1.45;;;;;;;18.47;44.37;100803.34;4965017;28;20042;-71
2022/11/28 05:16:21;;;;;;;3.90;1.52;;;;;;;18.48;44.40;100810.28;4964783;28;20030;-70
2022/11/28 05:18:46;;;;;;;3.15;1.45;;;;;;;18.45;44.11;100806.13;4964614;28;20034;-71
2022/11/28 05:21:12;;;;;;;3.00;1.40;;;;;;;18.49;44.37;100819.91;4964655;28;20034;-69
2022/11/28 05:23:40;;;;;;;2.50;1.40;;;;;;;18.45;44.02;100810.53;4964964;28;20045;-69
2022/11/28 05:26:08;;;;;;;2.83;1.38;;;;;;;18.46;44.25;100815.69;4965134;28;20050;-70
2022/11/28 05:28:34;;;;;;;3.38;1.65;;;;;;;18.46;44.16;100810.41;4964636;28;20038;-70
2022/11/28 05:31:00;;;;;;;3.30;1.58;;;;;;;18.43;44.39;100808.03;4964646;28;20038;-70
2022/11/28 05:33:29;;;;;;;3.10;1.42;;;;;;;18.40;44.34;100804.81;4964284;28;20574;-70
2022/11/28 05:35:55;;;;;;;3.03;1.40;;;;;;;18.44;44.08;100817.63;4964304;28;20034;-70
2022/11/28 05:38:22;;;;;;;2.97;1.40;;;;;;;18.38;44.00;100804.94;4978795;28;20042;-72
2022/11/28 05:40:48;;;;;;;3.60;1.60;;;;;;;18.46;44.24;100826.25;4964609;28;20034;-68
2022/11/28 05:43:13;;;;;;;2.70;1.50;;;;;;;18.44;44.33;100819.44;4964633;28;20475;-70
2022/11/28 05:45:42;;;;;;;2.70;1.40;;;;;;;18.43;43.98;100821.22;4979284;28;20578;-68
2022/11/28 05:48:08;;;;;;;2.97;1.38;;;;;;;18.46;44.30;100830.69;4963853;28;20039;-69
2022/11/28 05:50:33;;;;;;;2.35;1.27;;;;;;;18.45;44.39;100827.25;4964394;28;20031;-68
2022/11/28 05:52:58;;;;;;;3.25;1.38;;;;;;;18.44;44.21;100816.81;4979266;28;20030;-72
2022/11/28 05:55:24;;;;;;;2.35;1.30;;;;;;;18.44;44.21;100817.63;4964542;28;20049;-70
2022/11/28 05:57:49;;;;;;;3.45;1.50;;;;;;;18.44;44.47;100812.34;4964026;28;20031;-70
2022/11/28 06:00:15;;;;;;;3.20;1.30;;;;;;;18.43;44.09;100815.13;4964093;28;20034;-70
2022/11/28 06:02:40;;;;;;;2.88;1.30;;;;;;;18.42;43.95;100814.28;4964037;28;20031;-71
2022/11/28 06:05:05;;;;;;;2.28;1.27;;;;;;;18.44;44.31;100809.72;4964152;28;20037;-67
2022/11/28 06:07:31;;;;;;;2.63;1.33;;;;;;;18.42;44.20;100814.28;4963180;28;20043;-70
2022/11/28 06:09:56;;;;;;;3.03;1.30;;;;;;;18.45;44.35;100818.47;4963981;28;20109;-68
2022/11/28 06:12:21;;;;;;;1.92;1.10;;;;;;;18.46;44.36;100815.69;4964269;28;20092;-71
2022/11/28 06:14:47;;;;;;;2.47;1.08;;;;;;;18.48;44.32;100819.06;4963884;28;20888;-70
2022/11/28 06:17:12;;;;;;;3.53;1.13;;;;;;;18.52;44.19;100819.66;4963387;28;20030;-71
2022/11/28 06:19:37;;;;;;;1.80;0.98;;;;;;;18.54;44.32;100816.88;4963518;28;20558;-70
2022/11/28 06:22:03;;;;;;;2.25;1.27;;;;;;;18.58;44.45;100826.19;4963533;28;20041;-70
2022/11/28 06:24:28;;;;;;;2.72;1.05;;;;;;;18.59;44.23;100825.25;4963316;28;20035;-69
2022/11/28 06:26:54;;;;;;;1.98;1.05;;;;;;;18.59;44.46;100823.44;4963359;28;20986;-71
2022/11/28 06:29:19;;;;;;;1.83;1.00;;;;;;;18.63;44.47;100824.03;4963642;28;20126;-70
2022/11/28 06:31:45;;;;;;;2.53;1.15;;;;;;;18.61;44.46;100826.81;4963386;28;20034;-70
2022/11/28 06:34:11;;;;;;;4.03;1.23;;;;;;;18.71;44.33;100840.06;4963276;28;20062;-70
2022/11/28 06:36:37;;;;;;;2.47;1.20;;;;;;;18.75;44.49;100833.53;4963251;28;20073;-70
2022/11/28 06:39:02;;;;;;;1.65;1.05;;;;;;;18.79;44.12;100840.25;4963236;28;20042;-69
2022/11/28 06:41:28;;;;;;;2.67;1.10;;;;;;;18.83;44.34;100839.03;4963284;28;20039;-69
2022/11/28 06:43:54;;;;;;;2.67;1.13;;;;;;;18.83;44.36;100840.81;4963598;28;20038;-69
2022/11/28 06:46:20;;;;;;;2.17;1.10;;;;;;;18.89;44.11;100839.50;4963135;28;20121;-70
2022/11/28 06:48:47;;;;;;;1.77;1.02;;;;;;;18.88;44.19;100830.72;4963009;28;20121;-69
2022/11/28 06:51:12;;;;;;;4.18;1.10;;;;;;;18.91;44.17;100830.47;4963091;28;20601;-71
2022/11/28 06:53:39;;;;;;;2.30;1.15;;;;;;;18.91;44.32;100824.38;4962898;28;20039;-71
2022/11/28 06:56:09;;;;;;;2.65;1.10;;;;;;;18.94;43.99;100837.31;4963140;28;20038;-68
2022/11/28 06:58:35;;;;;;;3.63;1.20;;;;;;;18.98;44.18;100833.44;4963076;28;20026;-70
2022/11/28 07:01:13;;;;;;;2.72;1.15;;;;;;;18.95;44.19;100837.19;4962879;28;20387;-70
2022/11/28 07:03:39;;;;;;;2.50;1.13;;;;;;;18.98;44.00;100838.75;4962630;28;20376;-72
2022/11/28 07:06:05;;;;;;;3.60;1.20;;;;;;;18.96;44.56;100830.94;4962911;28;20113;-72
2022/11/28 07:08:31;;;;;;;2.38;1.13;;;;;;;18.99;44.67;100835.97;4962407;28;20502;-71
2022/11/28 07:10:57;;;;;;;2.60;1.20;;;;;;;19.03;44.76;100845.28;4962990;28;20026;-69
2022/11/28 07:13:23;;;;;;;2.20;1.10;;;;;;;19.03;44.97;100849.75;4962887;28;20206;-70
2022/11/28 07:15:49;;;;;;;3.03;1.20;;;;;;;18.97;44.95;100834.41;4962611;28;20377;-70
2022/11/28 07:18:15;;;;;;;2.13;1.10;;;;;;;19.02;45.09;100845.41;4962287;28;20042;-72
2022/11/28 07:20:40;;;;;;;3.50;1.20;;;;;;;19.04;45.19;100848.75;4962717;28;20033;-70
2022/11/28 07:23:06;;;;;;;1.77;1.00;;;;;;;19.03;45.27;100840.00;4963093;28;20043;-69
2022/11/28 07:25:31;;;;;;;3.47;1.10;;;;;;;19.07;45.23;100847.66;4962888;28;20039;-69
2022/11/28 07:27:58;;;;;;;1.88;1.05;;;;;;;19.09;45.38;100845.72;4962955;28;20042;-71
2022/11/28 07:30:23;;;;;;;2.47;1.02;;;;;;;19.07;45.26;100845.03;4962633;28;20031;-70
2022/11/28 07:32:49;;;;;;;2.42;1.30;;;;;;;19.10;45.35;100847.41;4977345;28;20054;-72
2022/11/28 07:35:14;;;;;;;2.05;1.17;;;;;;;19.08;45.72;100846.72;4962395;28;20031;-72
2022/11/28 07:37:39;;;;;;;3.45;1.30;;;;;;;19.10;45.83;100856.16;4962693;28;20038;-69
2022/11/28 07:40:05;;;;;;;2.80;1.20;;;;;;;19.09;45.24;100856.28;4962617;28;20590;-71
2022/11/28 07:42:31;;;;;;;2.33;1.10;;;;;;;19.12;45.85;100866.59;4962593;28;20263;-71
2022/11/28 07:44:56;;;;;;;3.08;1.20;;;;;;;19.12;45.69;100854.25;4962638;28;20035;-73
2022/11/28 07:47:21;;;;;;;2.70;1.00;;;;;;;19.14;45.58;100862.88;4962634;28;20099;-69
2022/11/28 07:49:46;;;;;;;1.85;1.02;;;;;;;19.10;45.70;100864.09;4962264;28;20110;-74
2022/11/28 07:52:12;;;;;;;3.20;1.50;;;;;;;19.13;45.70;100870.91;4962848;28;20031;-70
2022/11/28 07:54:37;;;;;;;2.10;1.00;;;;;;;19.11;45.91;100863.13;4963369;28;20311;-70
2022/11/28 07:57:02;;;;;;;2.77;1.27;;;;;;;19.09;45.62;100867.72;4962448;28;20281;-70
2022/11/28 07:59:27;;;;;;;3.42;1.20;;;;;;;19.11;45.81;100884.25;4962367;28;20637;-71
2022/11/28 08:01:53;;;;;;;6.60;1.30;;;;;;;19.09;45.66;100880.91;4963539;28;20105;-69
2022/11/28 08:04:18;;;;;;;2.67;1.13;;;;;;;19.09;45.46;100880.06;4961037;28;20510;-69
2022/11/28 08:06:43;;;;;;;3.13;1.20;;;;;;;19.10;45.44;100882.56;4961859;28;20038;-69
2022/11/28 08:09:10;;;;;;;7.97;1.35;;;;;;;19.10;45.42;100881.75;4961929;28;20831;-72
2022/11/28 08:11:36;;;;;;;3.53;1.30;;;;;;;19.08;45.69;100888.97;4962335;28;20034;-73
2022/11/28 08:14:03;;;;;;;2.72;1.20;;;;;;;19.05;45.55;100881.31;4961932;28;20035;-73
2022/11/28 08:16:28;;;;;;;3.05;1.30;;;;;;;19.06;45.53;100882.97;4976963;28;20491;-73
2022/11/28 08:18:54;;;;;;;4.10;1.17;;;;;;;19.07;45.63;100892.56;4976478;28;20034;-71
2022/11/28 08:21:22;;;;;;;1.98;1.00;;;;;;;19.07;45.78;100893.41;4962184;28;20364;-72
2022/11/28 08:23:50;;;;;;;3.28;1.33;;;;;;;19.06;45.87;100894.38;4962088;28;20050;-72
2022/11/28 08:26:16;;;;;;;3.67;1.33;;;;;;;19.07;45.88;100887.28;4961864;28;20031;-73
2022/11/28 08:28:42;;;;;;;4.40;1.10;;;;;;;19.08;45.85;100894.25;4961404;28;20137;-73
2022/11/28 08:31:15;;;;;;;2.75;1.23;;;;;;;19.07;45.97;100896.03;4963977;28;20145;-71
2022/11/28 08:33:41;;;;;;;2.17;1.00;;;;;;;19.11;45.76;100896.63;4964785;28;20120;-73
2022/11/28 08:36:08;;;;;;;4.22;1.50;;;;;;;19.13;45.94;100899.97;4980100;28;20039;-73
2022/11/28 08:38:34;;;;;;;6.50;1.27;;;;;;;19.13;45.67;100899.97;4965445;28;20106;-73
2022/11/28 08:41:05;;;;;;;3.47;1.10;;;;;;;19.14;45.87;100904.31;4980489;28;20529;-71
2022/11/28 08:43:30;;;;;;;2.78;1.25;;;;;;;19.14;45.81;100905.13;4965479;28;20045;-71
2022/11/28 08:45:56;;;;;;;2.90;1.08;;;;;;;19.16;45.67;100913.75;4965286;28;20038;-71
2022/11/28 08:48:21;;;;;;;3.92;1.33;;;;;;;19.15;45.49;100904.19;4964558;28;20109;-70
2022/11/28 08:50:47;;;;;;;3.85;1.30;;;;;;;19.18;46.02;100909.19;4964681;28;20042;-70
2022/11/28 08:53:13;;;;;;;2.05;1.00;;;;;;;19.15;45.47;100890.97;4964108;28;20109;-70
2022/11/28 08:55:43;;;;;;;5.40;1.10;;;;;;;19.23;45.56;100915.88;4964427;28;20463;-73
2022/11/28 08:58:08;;;;;;;2.67;1.25;;;;;;;19.21;45.43;100901.00;4965482;28;20030;-72
2022/11/28 09:00:34;;;;;;;3.78;1.05;;;;;;;19.21;45.22;100900.16;4965540;28;20026;-73
2022/11/28 09:02:59;;;;;;;2.25;1.10;;;;;;;19.20;45.68;100894.06;4965084;28;20038;-72
2022/11/28 09:05:24;;;;;;;4.30;1.40;;;;;;;19.17;45.47;100896.94;4964687;28;20035;-74
2022/11/28 09:07:53;;;;;;;5.80;1.40;;;;;;;19.18;45.79;100896.00;4964717;28;20031;-73
2022/11/28 09:10:18;;;;;;;3.25;1.40;;;;;;;19.20;45.70;100899.34;4967465;28;20291;-75
2022/11/28 09:12:44;;;;;;;4.25;1.25;;;;;;;19.21;45.48;100901.00;4968492;28;20039;-76
2022/11/28 09:15:09;;;;;;;3.43;1.27;;;;;;;19.21;45.50;100908.91;4968126;28;20110;-74
2022/11/28 09:17:34;;;;;;;4.45;1.20;;;;;;;19.20;45.39;100912.53;4966587;28;20771;-76
2022/11/28 09:20:00;;;;;;;3.43;1.27;;;;;;;19.23;45.58;100918.53;4964212;28;20029;-74
2022/11/28 09:22:28;;;;;;;2.83;1.13;;;;;;;19.15;45.60;100912.09;4964669;28;20745;-71
2022/11/28 09:24:53;;;;;;;3.50;1.40;;;;;;;19.26;45.40;100926.19;4964994;28;20491;-70
2022/11/28 09:27:18;;;;;;;3.50;1.20;;;;;;;19.23;45.46;100919.34;4965264;28;20041;-66
2022/11/28 09:29:44;;;;;;;3.88;1.65;;;;;;;19.24;45.43;100926.31;4965987;28;20609;-72
2022/11/28 09:32:09;;;;;;;2.83;1.20;;;;;;;19.23;45.49;100922.00;4966238;28;20143;-71
2022/11/28 09:34:34;;;;;;;3.45;1.33;;;;;;;19.24;45.63;100921.03;4965684;28;21055;-70
2022/11/28 09:36:59;;;;;;;4.03;1.40;;;;;;;19.23;45.55;100921.16;4964988;28;20033;-71
2022/11/28 09:39:25;;;;;;;2.92;1.30;;;;;;;19.20;45.57;100920.47;4964575;28;20391;-68
2022/11/28 09:42:01;;;;;;;2.67;1.20;;;;;;;19.19;45.85;100918.78;4965196;28;20117;-68
2022/11/28 09:44:49;;;;;;;3.28;1.15;;;;;;;19.23;45.83;100924.63;4979005;28;20269;-69
2022/11/28 09:47:21;;;;;;;2.80;1.27;;;;;;;19.18;45.94;100922.41;4966879;28;20495;-68
2022/11/28 09:50:01;;;;;;;2.72;1.20;;;;;;;19.20;46.00;100923.13;4966937;28;20117;-69
2022/11/28 09:52:42;;;;;;;2.65;1.20;;;;;;;19.20;46.25;100925.75;4965224;28;20044;-68
2022/11/28 09:55:30;;;;;;;3.22;1.27;;;;;;;19.21;45.98;100921.28;4964942;28;20043;-69
2022/11/28 09:57:56;;;;;;;4.10;1.10;;;;;;;19.20;46.18;100938.09;4964247;28;20039;-70
2022/11/28 10:00:31;;;;;;;3.40;1.40;;;;;;;19.19;46.25;100937.28;4963549;28;20050;-69
2022/11/28 10:03:09;;;;;;;5.25;1.27;;;;;;;19.20;46.62;100935.47;4964534;28;20487;-71
2022/11/28 10:05:57;;;;;;;4.50;1.10;;;;;;;19.18;46.66;100932.13;4963486;28;20045;-70
2022/11/28 10:08:44;;;;;;;4.65;1.30;;;;;;;19.15;46.83;100935.03;4965347;28;20498;-72
2022/11/28 10:11:46;;;;;;;4.40;1.20;;;;;;;19.16;46.55;100926.97;4964309;28;20094;-71
2022/11/28 10:14:36;;;;;;;2.90;1.10;;;;;;;19.17;46.92;100922.53;4964015;28;20041;-69
2022/11/28 10:17:17;;;;;;;4.13;1.63;;;;;;;19.14;46.68;100920.97;4963667;28;20030;-70
2022/11/28 10:19:51;;;;;;;6.40;1.50;;;;;;;19.17;46.97;100931.28;4964358;28;20442;-71
2022/11/28 10:22:25;;;;;;;2.78;1.33;;;;;;;19.18;47.02;100935.63;4963914;28;20035;-71
2022/11/28 10:24:56;;;;;;;3.90;1.30;;;;;;;19.16;46.89;100926.97;4964944;28;20049;-71
2022/11/28 10:27:29;;;;;;;5.10;1.33;;;;;;;19.20;46.92;100932.81;4963762;28;20249;-72
2022/11/28 10:30:00;;;;;;;5.93;1.38;;;;;;;19.20;46.79;100927.53;4963754;28;20034;-74
2022/11/28 10:32:43;;;;;;;4.43;1.58;;;;;;;19.23;46.68;100923.81;4964584;28;20047;-72
2022/11/28 10:35:17;;;;;;;3.03;1.40;;;;;;;19.19;46.75;100929.34;4964676;28;20046;-78
2022/11/28 10:37:42;;;;;;;5.95;1.60;;;;;;;19.20;46.88;100925.75;4978424;28;20080;-72
2022/11/28 10:40:30;;;;;;;4.68;1.50;;;;;;;19.20;46.62;100925.75;4978245;28;20030;-70
2022/11/28 10:43:09;;;;;;;3.60;2.10;;;;;;;19.16;46.62;100921.69;4963047;28;20092;-70
2022/11/28 10:45:46;;;;;;;3.15;1.38;;;;;;;19.26;46.41;100939.41;4964650;28;20097;-69
2022/11/28 10:48:25;;;;;;;2.80;1.40;;;;;;;19.25;46.64;100941.22;4964061;28;20030;-70
2022/11/28 10:51:29;;;;;;;5.20;1.33;;;;;;;19.27;46.35;100943.72;4964517;28;20357;-72
2022/11/28 10:54:22;;;;;;;3.33;1.40;;;;;;;19.26;46.70;100939.41;4951665;28;20225;-68
2022/11/28 10:57:16;;;;;;;7.68;1.65;;;;;;;19.24;46.31;100942.19;4964094;28;20283;-69
2022/11/28 11:00:13;;;;;;;2.47;1.20;;;;;;;19.26;46.61;100942.03;4964914;28;20053;-74
2022/11/28 11:02:51;;;;;;;2.90;1.50;;;;;;;19.24;46.57;100944.81;4965760;28;20043;-73
2022/11/28 11:05:24;;;;;;;3.88;1.42;;;;;;;19.23;46.38;100944.94;4967574;28;20042;-69
2022/11/28 11:07:55;;;;;;;4.03;1.58;;;;;;;19.20;46.44;100946.03;4966543;28;20046;-68
2022/11/28 11:11:06;;;;;;;3.60;1.52;;;;;;;19.21;46.67;100948.53;4966035;28;20358;-70
2022/11/28 11:13:34;;;;;;;7.18;1.92;;;;;;;19.18;46.59;100943.53;4970678;28;20057;-71
2022/11/28 11:16:08;;;;;;;5.47;1.90;;;;;;;19.15;46.64;100942.94;4964023;28;20479;-69
2022/11/28 11:18:35;;;;;;;5.88;2.35;;;;;;;19.15;46.47;100930.59;4965910;28;20426;-70
2022/11/28 11:21:25;;;;;;;4.38;1.75;;;;;;;19.15;46.68;100940.31;4963473;28;20499;-69
2022/11/28 11:24:12;;;;;;;4.88;2.00;;;;;;;19.15;46.77;100935.03;4962557;28;20066;-73
2022/11/28 11:26:40;;;;;;;5.05;2.17;;;;;;;19.12;46.76;100936.13;4961944;28;20434;-69
2022/11/28 11:29:19;;;;;;;4.25;1.80;;;;;;;19.15;46.77;100930.59;4962632;28;20035;-68
2022/11/28 11:31:49;;;;;;;4.40;1.80;;;;;;;19.16;46.70;100934.06;4977054;28;20391;-68
2022/11/28 11:34:17;;;;;;;3.45;1.90;;;;;;;19.14;46.69;100926.25;4963687;28;20054;-68
2022/11/28 11:36:42;;;;;;;4.00;1.95;;;;;;;19.18;46.56;100930.34;4962433;28;20082;-69
2022/11/28 11:39:11;;;;;;;3.85;1.80;;;;;;;19.18;46.73;100929.47;4963310;28;20043;-72
2022/11/28 11:41:41;;;;;;;5.35;1.90;;;;;;;19.15;46.97;100930.59;4961809;28;20031;-72
2022/11/28 11:44:12;;;;;;;4.82;2.38;;;;;;;19.17;47.08;100930.47;4963197;28;20406;-69